Time;durP1;ratioP1;P1;durP2;ratioP2;P2;SDS_P1;SDS_P2;PMS_P1;PMS_P2;Temp;Humidity;BMP_temperature;BMP_pressure;BME280_temperature;BME280_humidity;BME280_pressure;Samples;Min_cycle;Max_cycle;Signal;HPM_P1;HPM_P2
2021/06/21 00:00:18;;;;;;;8.88;2.65;;;;;;;15.49;85.01;94841.91;4981064;28;20179;-75
2021/06/21 00:02:44;;;;;;;8.05;2.10;;;;;;;15.48;85.93;94845.50;4981045;28;20183;-75
2021/06/21 00:05:12;;;;;;;6.97;2.15;;;;;;;15.43;85.33;94853.13;4976698;28;20210;-74
2021/06/21 00:07:37;;;;;;;5.57;2.10;;;;;;;15.47;85.85;94864.03;4969488;28;20251;-74
2021/06/21 00:10:04;;;;;;;7.78;2.03;;;;;;;15.58;85.34;94866.91;4961600;28;20287;-74
2021/06/21 00:12:29;;;;;;;8.13;2.42;;;;;;;15.67;85.19;94869.38;4961572;28;20182;-74
2021/06/21 00:14:55;;;;;;;7.32;2.10;;;;;;;15.69;84.75;94872.59;4968568;28;20211;-75
2021/06/21 00:17:20;;;;;;;8.60;2.00;;;;;;;15.81;84.16;94871.84;4974044;28;20230;-74
2021/06/21 00:19:45;;;;;;;8.15;2.00;;;;;;;15.77;84.38;94873.25;4980898;28;20172;-74
2021/06/21 00:22:12;;;;;;;8.93;2.20;;;;;;;15.78;84.31;94866.19;4980897;28;20222;-74
2021/06/21 00:24:37;;;;;;;11.93;2.10;;;;;;;15.81;84.54;94861.38;4979502;28;20184;-74
2021/06/21 00:27:03;;;;;;;8.88;2.50;;;;;;;15.84;84.61;94860.19;4970352;28;20627;-75
2021/06/21 00:29:28;;;;;;;9.60;1.95;;;;;;;15.82;83.99;94862.19;4961326;28;20266;-75
2021/06/21 00:31:53;;;;;;;13.05;2.10;;;;;;;15.74;84.12;94859.75;4961531;28;20180;-74
2021/06/21 00:34:19;;;;;;;11.23;2.30;;;;;;;15.76;83.91;94868.19;4961017;28;20202;-74
2021/06/21 00:36:44;;;;;;;7.22;2.15;;;;;;;15.74;83.36;94864.97;4971922;28;20207;-74
2021/06/21 00:39:09;;;;;;;5.32;1.95;;;;;;;15.75;82.67;94864.78;4972655;28;20207;-74
2021/06/21 00:41:36;;;;;;;8.95;1.95;;;;;;;15.79;82.50;94859.94;4980683;28;20202;-74
2021/06/21 00:44:02;;;;;;;14.00;2.50;;;;;;;15.87;82.63;94870.25;4997775;28;20168;-74
2021/06/21 00:46:28;;;;;;;9.18;1.92;;;;;;;15.95;81.84;94867.47;4961404;28;20277;-74
2021/06/21 00:48:53;;;;;;;5.78;1.85;;;;;;;15.83;82.04;94879.50;4971570;28;20212;-74
2021/06/21 00:51:19;;;;;;;7.38;2.30;;;;;;;15.82;82.56;94872.66;4961391;28;20598;-75
2021/06/21 00:53:44;;;;;;;7.72;1.88;;;;;;;15.89;81.89;94868.22;4960721;28;20176;-75
2021/06/21 00:56:10;;;;;;;9.60;2.00;;;;;;;15.76;81.61;94878.69;4978453;28;20695;-75
2021/06/21 00:58:35;;;;;;;8.55;1.83;;;;;;;15.78;82.13;94874.84;4987131;28;20262;-74
2021/06/21 01:01:01;;;;;;;8.88;2.55;;;;;;;15.74;81.82;94863.16;4964027;28;20176;-74
2021/06/21 01:03:26;;;;;;;7.75;2.25;;;;;;;15.78;81.78;94845.25;4980464;28;20184;-74
2021/06/21 01:05:52;;;;;;;8.82;1.85;;;;;;;15.79;81.98;94849.47;4979396;28;20192;-74
2021/06/21 01:08:17;;;;;;;10.65;2.00;;;;;;;15.73;82.41;94843.22;4971473;28;20219;-75
2021/06/21 01:10:45;;;;;;;7.55;2.25;;;;;;;15.80;82.49;94848.47;4965838;28;20205;-74
2021/06/21 01:13:20;;;;;;;10.43;2.17;;;;;;;15.83;82.29;94851.53;4957963;28;20184;-75
2021/06/21 01:15:59;;;;;;;8.48;2.00;;;;;;;15.82;82.31;94864.81;4958045;28;20238;-73
2021/06/21 01:18:30;;;;;;;8.13;1.90;;;;;;;15.75;82.90;94872.63;4963791;28;20204;-74
2021/06/21 01:21:23;;;;;;;10.65;2.45;;;;;;;15.66;83.43;94865.16;4969086;28;20187;-74
2021/06/21 01:24:00;;;;;;;8.95;2.00;;;;;;;15.67;83.18;94859.72;4994368;28;20187;-74
2021/06/21 01:26:46;;;;;;;6.90;3.40;;;;;;;15.66;83.23;94860.72;4994558;28;20649;-75
2021/06/21 01:29:27;;;;;;;6.75;1.98;;;;;;;15.68;82.85;94855.28;4972559;28;20209;-74
2021/06/21 01:32:21;;;;;;;9.02;2.42;;;;;;;15.49;83.70;94844.50;4983025;28;20700;-74
2021/06/21 01:34:49;;;;;;;10.77;2.25;;;;;;;15.43;84.03;94845.28;4880053;29;20219;-74
2021/06/21 01:37:16;;;;;;;7.72;2.35;;;;;;;15.44;83.51;94851.31;4880721;29;20198;-74
2021/06/21 01:39:43;;;;;;;9.93;2.65;;;;;;;15.37;83.92;94845.25;4886524;29;20195;-74
2021/06/21 01:42:13;;;;;;;11.13;2.40;;;;;;;15.42;83.98;94846.28;4904439;29;20183;-74
2021/06/21 01:44:43;;;;;;;8.90;2.13;;;;;;;15.33;84.54;94846.63;4880131;29;20604;-75
2021/06/21 01:47:10;;;;;;;8.02;1.80;;;;;;;15.25;84.80;94845.00;4880646;29;20218;-74
2021/06/21 01:49:38;;;;;;;10.35;2.28;;;;;;;15.23;85.15;94841.78;4895747;29;20352;-74
2021/06/21 01:52:04;;;;;;;10.02;2.03;;;;;;;15.17;86.09;94847.75;4890147;29;20540;-74
2021/06/21 01:54:31;;;;;;;9.60;1.92;;;;;;;15.11;86.02;94831.06;4898407;29;20209;-74
2021/06/21 01:56:58;;;;;;;8.70;2.40;;;;;;;15.15;86.09;94840.09;4914853;29;20290;-75
2021/06/21 01:59:25;;;;;;;9.57;2.20;;;;;;;15.20;85.72;94836.94;4899177;29;20191;-74
2021/06/21 02:01:51;;;;;;;9.55;2.58;;;;;;;15.18;85.48;94844.13;4891039;29;20188;-75
2021/06/21 02:04:16;;;;;;;7.35;1.98;;;;;;;15.18;85.03;94836.28;4907043;29;20194;-74
2021/06/21 02:06:43;;;;;;;8.23;1.98;;;;;;;15.28;83.95;94826.28;4914697;29;20202;-74
2021/06/21 02:09:10;;;;;;;6.43;2.00;;;;;;;15.16;84.49;94830.44;4914579;29;20297;-74
2021/06/21 02:11:35;;;;;;;9.02;2.63;;;;;;;15.15;84.28;94827.03;4948062;28;20223;-74
2021/06/21 02:14:03;;;;;;;8.35;2.38;;;;;;;15.11;83.67;94840.69;4966035;28;20279;-75
2021/06/21 02:16:29;;;;;;;9.20;2.17;;;;;;;15.10;83.82;94847.72;4956898;28;20283;-74
2021/06/21 02:18:54;;;;;;;7.88;1.98;;;;;;;15.21;82.25;94847.19;4956479;28;20208;-74
2021/06/21 02:21:23;;;;;;;8.95;1.92;;;;;;;15.29;82.03;94846.22;4956901;28;20212;-75
2021/06/21 02:23:49;;;;;;;10.27;2.05;;;;;;;15.36;81.95;94843.63;4964497;28;20188;-74
2021/06/21 02:26:21;;;;;;;8.20;1.95;;;;;;;15.30;81.86;94847.84;4976015;28;20218;-74
2021/06/21 02:28:47;;;;;;;8.27;2.33;;;;;;;15.28;81.86;94849.81;4975885;28;20216;-74
2021/06/21 02:31:13;;;;;;;8.00;1.80;;;;;;;15.36;82.04;94843.63;4975973;28;20172;-75
2021/06/21 02:33:38;;;;;;;7.18;2.70;;;;;;;15.37;81.06;94842.63;4967631;28;20192;-74
2021/06/21 02:36:05;;;;;;;7.35;2.03;;;;;;;15.38;80.56;94839.84;4964347;28;20643;-75
2021/06/21 02:38:30;;;;;;;8.38;1.85;;;;;;;15.35;81.18;94840.22;4956490;28;20184;-74
2021/06/21 02:40:56;;;;;;;9.95;1.95;;;;;;;15.38;80.12;94839.03;4956568;28;20179;-74
2021/06/21 02:43:21;;;;;;;11.50;2.28;;;;;;;15.42;79.92;94841.06;4976269;28;20263;-74
2021/06/21 02:45:46;;;;;;;7.18;1.75;;;;;;;15.36;80.73;94841.00;4984829;28;20283;-74
2021/06/21 02:48:12;;;;;;;11.05;2.10;;;;;;;15.32;80.35;94845.84;4972350;28;20204;-74
2021/06/21 02:50:42;;;;;;;10.73;3.70;;;;;;;15.38;80.10;94846.88;4956292;28;20214;-74
2021/06/21 02:53:41;;;;;;;9.80;1.77;;;;;;;15.35;79.80;94839.41;4940514;28;20636;-74
2021/06/21 02:56:10;;;;;;;7.40;2.25;;;;;;;15.29;80.81;94851.47;4961020;28;20216;-75
2021/06/21 02:58:39;;;;;;;7.72;2.28;;;;;;;15.31;79.38;94844.22;4956158;28;20181;-74
2021/06/21 03:01:06;;;;;;;9.48;1.80;;;;;;;15.29;79.89;94841.00;4940187;28;20188;-74
2021/06/21 03:03:36;;;;;;;6.78;1.92;;;;;;;15.26;79.97;94847.41;4939716;28;20287;-74
2021/06/21 03:06:02;;;;;;;7.20;2.47;;;;;;;15.21;80.14;94836.72;4962534;28;20204;-75
2021/06/21 03:08:28;;;;;;;6.30;1.95;;;;;;;15.26;79.15;94841.38;4961653;28;20193;-74
2021/06/21 03:10:54;;;;;;;6.23;2.10;;;;;;;15.24;79.49;94833.72;4973218;28;20218;-74
2021/06/21 03:13:20;;;;;;;8.47;2.37;;;;;;;15.27;79.66;94832.53;4955633;28;20192;-75
2021/06/21 03:15:46;;;;;;;11.93;2.07;;;;;;;15.28;79.00;94818.44;4962988;28;20250;-74
2021/06/21 03:18:12;;;;;;;9.70;1.88;;;;;;;15.25;80.54;94824.88;4963737;28;20184;-74
2021/06/21 03:20:38;;;;;;;7.78;1.85;;;;;;;15.30;79.94;94819.06;4973142;28;20181;-75
2021/06/21 03:23:04;;;;;;;5.82;1.88;;;;;;;15.38;79.53;94829.38;4955614;28;20518;-74
2021/06/21 03:25:35;;;;;;;5.35;2.00;;;;;;;15.40;79.03;94827.38;4955496;28;20203;-74
2021/06/21 03:28:09;;;;;;;6.72;1.67;;;;;;;15.48;79.25;94835.06;4965156;28;20188;-74
2021/06/21 03:30:34;;;;;;;8.88;1.77;;;;;;;15.47;78.84;94835.25;4991686;28;20214;-75
2021/06/21 03:33:00;;;;;;;7.35;2.00;;;;;;;15.40;79.17;94844.88;4974954;28;20535;-74
2021/06/21 03:35:27;;;;;;;10.23;1.98;;;;;;;15.38;78.73;94850.31;4974558;28;20258;-75
2021/06/21 03:37:53;;;;;;;10.00;2.22;;;;;;;15.45;78.00;94874.66;4983101;28;20199;-74
2021/06/21 03:40:18;;;;;;;9.85;2.10;;;;;;;15.54;78.12;94872.69;4974830;28;20187;-75
2021/06/21 03:42:44;;;;;;;7.07;1.88;;;;;;;15.46;78.89;94873.69;4974871;28;20176;-74
2021/06/21 03:45:10;;;;;;;11.05;2.22;;;;;;;15.49;78.98;94878.53;4974525;28;20196;-75
2021/06/21 03:47:37;;;;;;;7.75;2.00;;;;;;;15.49;78.84;94877.72;4973845;28;20671;-74
2021/06/21 03:50:04;;;;;;;13.40;2.33;;;;;;;15.57;78.83;94878.38;4958433;28;20567;-74
2021/06/21 03:52:29;;;;;;;8.13;2.25;;;;;;;15.56;78.67;94878.56;4966531;28;20196;-74
2021/06/21 03:55:07;;;;;;;6.97;1.95;;;;;;;15.53;79.30;94884.97;4974175;28;20870;-75
2021/06/21 03:57:37;;;;;;;5.57;1.80;;;;;;;15.61;78.98;94873.56;4975813;28;20254;-74
2021/06/21 04:00:06;;;;;;;10.05;2.13;;;;;;;15.62;79.11;94880.41;4981502;28;20173;-75
2021/06/21 04:02:32;;;;;;;8.10;2.15;;;;;;;15.85;77.97;94877.50;4974594;28;20686;-74
2021/06/21 04:04:57;;;;;;;5.28;1.45;;;;;;;15.98;77.45;94874.09;4991739;28;20223;-74
2021/06/21 04:07:22;;;;;;;6.13;1.70;;;;;;;15.79;77.99;94873.84;4974592;28;20266;-74
2021/06/21 04:09:48;;;;;;;6.28;1.77;;;;;;;15.61;78.44;94878.00;4982780;28;20275;-74
2021/06/21 04:12:13;;;;;;;6.10;2.60;;;;;;;15.66;78.21;94871.19;4963050;28;20623;-74
2021/06/21 04:14:38;;;;;;;6.30;1.55;;;;;;;15.57;78.35;94867.91;4954827;28;20664;-74
2021/06/21 04:17:04;;;;;;;7.10;2.60;;;;;;;15.55;78.44;94869.91;4955253;28;20180;-74
2021/06/21 04:19:29;;;;;;;10.25;1.88;;;;;;;15.53;78.47;94863.22;4943734;28;20242;-74
2021/06/21 04:21:55;;;;;;;6.20;2.25;;;;;;;15.53;78.17;94861.41;4982479;28;20199;-73
2021/06/21 04:24:20;;;;;;;6.50;1.85;;;;;;;15.69;77.62;94873.41;4963027;28;20184;-75
2021/06/21 04:26:45;;;;;;;5.70;2.03;;;;;;;15.67;78.13;94877.22;4954720;28;20203;-74
2021/06/21 04:29:11;;;;;;;7.75;1.83;;;;;;;15.81;77.38;94887.56;4974525;28;20222;-74
2021/06/21 04:31:36;;;;;;;8.68;2.10;;;;;;;15.89;77.06;94881.31;4983059;28;20205;-74
2021/06/21 04:34:01;;;;;;;7.22;1.80;;;;;;;17.99;71.22;94884.09;4972646;28;20175;-74
2021/06/21 04:36:27;;;;;;;8.27;1.60;;;;;;;20.52;62.84;94886.84;4974509;28;20241;-75
2021/06/21 04:38:52;;;;;;;6.65;1.70;;;;;;;21.74;56.90;94891.53;4974498;28;20176;-75
2021/06/21 04:41:17;;;;;;;6.15;1.52;;;;;;;23.23;52.75;94893.19;4971679;28;20189;-75
2021/06/21 04:43:42;;;;;;;8.98;2.45;;;;;;;24.24;50.25;94891.91;4957577;28;20184;-75
2021/06/21 04:46:08;;;;;;;7.10;1.70;;;;;;;24.74;46.41;94887.41;4995324;28;20204;-75
2021/06/21 04:48:33;;;;;;;8.07;1.80;;;;;;;25.38;45.19;94884.75;4995387;28;20186;-75
2021/06/21 04:50:58;;;;;;;5.88;1.50;;;;;;;25.43;44.63;94882.09;4976881;28;20218;-75
2021/06/21 04:53:24;;;;;;;7.57;1.77;;;;;;;24.93;45.19;94893.16;4986634;28;20179;-75
2021/06/21 04:55:50;;;;;;;4.03;1.63;;;;;;;26.86;40.86;94898.66;4961127;28;20197;-75
2021/06/21 04:58:15;;;;;;;9.65;1.80;;;;;;;25.74;44.16;94900.94;4959184;28;20172;-75
2021/06/21 05:00:40;;;;;;;5.97;1.77;;;;;;;26.21;42.57;94904.34;4958374;28;20180;-76
2021/06/21 05:03:05;;;;;;;6.97;1.80;;;;;;;26.25;42.38;94904.63;4966322;28;20246;-75
2021/06/21 05:05:31;;;;;;;7.05;1.95;;;;;;;26.12;43.21;94905.09;4972149;28;20239;-76
2021/06/21 05:07:56;;;;;;;5.70;1.50;;;;;;;26.38;42.68;94903.34;4994954;28;20258;-76
2021/06/21 05:10:23;;;;;;;6.45;1.67;;;;;;;26.96;42.04;94898.69;4977435;28;20586;-76
2021/06/21 05:12:49;;;;;;;6.70;1.80;;;;;;;27.37;40.01;94912.81;4976058;28;20179;-76
2021/06/21 05:15:15;;;;;;;5.25;1.70;;;;;;;27.47;39.93;94912.78;4965779;28;20188;-76
2021/06/21 05:17:41;;;;;;;5.47;1.40;;;;;;;27.76;39.05;94915.72;4942069;28;20219;-75
2021/06/21 05:20:07;;;;;;;5.03;1.67;;;;;;;26.35;42.11;94914.50;4958037;28;20251;-75
2021/06/21 05:22:33;;;;;;;7.50;1.98;;;;;;;26.14;42.96;94918.94;4958193;28;20192;-75
2021/06/21 05:24:59;;;;;;;7.35;1.88;;;;;;;27.40;40.18;94914.97;4965880;28;20283;-75
2021/06/21 05:27:26;;;;;;;5.75;1.92;;;;;;;27.02;41.27;94921.56;4964230;28;20235;-76
2021/06/21 05:29:51;;;;;;;10.13;1.92;;;;;;;27.37;40.43;94910.94;4975206;28;20521;-76
2021/06/21 05:32:17;;;;;;;8.77;1.60;;;;;;;28.45;37.12;94909.63;4973737;28;20279;-76
2021/06/21 05:34:42;;;;;;;5.72;1.90;;;;;;;27.50;40.07;94906.94;4981883;28;20330;-76
2021/06/21 05:37:07;;;;;;;4.30;1.67;;;;;;;28.12;38.50;94904.94;4968976;28;20175;-76
2021/06/21 05:39:33;;;;;;;5.07;1.50;;;;;;;28.17;37.62;94907.56;4961235;28;20640;-75
2021/06/21 05:41:58;;;;;;;6.65;1.55;;;;;;;27.10;40.86;94908.56;4976978;28;20176;-75
2021/06/21 05:44:23;;;;;;;6.15;1.60;;;;;;;28.08;39.22;94896.66;4975824;28;20176;-75
2021/06/21 05:46:49;;;;;;;8.82;1.67;;;;;;;28.23;37.82;94904.63;4968251;28;20208;-75
2021/06/21 05:49:14;;;;;;;6.00;1.70;;;;;;;26.50;41.25;94906.56;4957421;28;20239;-75
2021/06/21 05:51:39;;;;;;;5.38;1.30;;;;;;;28.23;38.09;94907.28;4957394;28;20176;-76
2021/06/21 05:54:05;;;;;;;6.45;1.52;;;;;;;28.69;37.78;94923.09;4956514;28;20196;-76
2021/06/21 05:56:30;;;;;;;5.88;2.00;;;;;;;28.69;37.41;94919.63;4980950;28;20222;-76
2021/06/21 05:58:55;;;;;;;5.25;1.70;;;;;;;28.88;37.10;94919.78;4965249;28;20191;-76
2021/06/21 06:01:21;;;;;;;5.45;1.98;;;;;;;27.87;38.72;94919.97;4957217;28;20185;-76
2021/06/21 06:03:46;;;;;;;4.53;1.65;;;;;;;28.75;36.98;94929.22;4974267;28;20189;-75
2021/06/21 06:06:11;;;;;;;6.43;1.60;;;;;;;28.18;38.62;94927.84;4960135;28;20211;-76
2021/06/21 06:08:37;;;;;;;4.57;1.75;;;;;;;27.09;40.28;94919.47;4985767;28;20183;-75
2021/06/21 06:11:02;;;;;;;6.80;1.65;;;;;;;27.29;40.06;94919.47;4976374;28;20262;-75
2021/06/21 06:13:27;;;;;;;6.85;1.98;;;;;;;27.89;38.95;94922.34;4976128;28;20587;-76
2021/06/21 06:15:53;;;;;;;6.40;1.60;;;;;;;28.37;38.61;94922.75;4976211;28;20283;-76
2021/06/21 06:18:18;;;;;;;5.43;1.60;;;;;;;28.56;37.68;94920.25;4984545;28;20179;-76
2021/06/21 06:20:44;;;;;;;6.82;1.70;;;;;;;26.94;41.25;94916.78;4977953;28;20276;-76
2021/06/21 06:23:09;;;;;;;4.93;1.70;;;;;;;28.85;37.62;94923.81;4956955;28;20173;-76
2021/06/21 06:25:37;;;;;;;7.25;1.77;;;;;;;28.84;37.54;94921.41;4956602;28;20255;-76
2021/06/21 06:28:03;;;;;;;5.50;1.48;;;;;;;28.42;38.48;94922.72;4963296;28;20562;-75
2021/06/21 06:30:28;;;;;;;4.35;1.50;;;;;;;28.19;38.79;94924.13;4950857;28;20301;-75
2021/06/21 06:32:54;;;;;;;5.97;1.60;;;;;;;28.57;39.05;94928.00;4956459;28;20181;-76
2021/06/21 06:35:19;;;;;;;7.90;1.70;;;;;;;28.89;38.40;94935.59;4956248;28;20267;-76
2021/06/21 06:37:46;;;;;;;4.75;1.42;;;;;;;29.02;36.82;94940.31;4975156;28;20180;-76
2021/06/21 06:40:11;;;;;;;4.85;1.60;;;;;;;29.76;35.34;94942.91;4962041;28;20231;-76
2021/06/21 06:42:37;;;;;;;3.90;1.52;;;;;;;28.61;38.45;94945.03;4974693;28;20184;-75
2021/06/21 06:45:03;;;;;;;6.35;1.40;;;;;;;28.54;38.93;94949.13;4973449;28;20200;-76
2021/06/21 06:47:29;;;;;;;4.47;1.70;;;;;;;29.16;36.60;94951.19;4956252;28;20668;-76
2021/06/21 06:49:55;;;;;;;10.60;1.73;;;;;;;29.36;37.52;94958.22;4961987;28;20212;-76
2021/06/21 06:52:22;;;;;;;5.75;1.70;;;;;;;28.91;37.61;94957.47;4963413;28;20554;-75
2021/06/21 06:57:13;;;;;;;12.98;3.22;;;;;;;27.64;41.71;94955.19;4973617;28;20223;-76
2021/06/21 06:59:39;;;;;;;5.68;1.83;;;;;;;27.89;40.78;94943.69;4963586;28;20199;-75
2021/06/21 07:02:07;;;;;;;4.47;1.40;;;;;;;28.27;40.33;94952.94;4968927;28;20188;-75
2021/06/21 07:04:32;;;;;;;6.80;1.50;;;;;;;29.07;38.61;94947.50;4955198;28;20207;-76
2021/06/21 07:06:58;;;;;;;5.85;1.60;;;;;;;28.94;38.89;94954.25;4956183;28;20868;-76
2021/06/21 07:09:25;;;;;;;7.78;1.70;;;;;;;27.57;41.97;94946.69;4957330;28;20561;-78
2021/06/21 07:11:52;;;;;;;6.90;1.52;;;;;;;26.96;42.38;94947.44;4980610;28;20192;-76
2021/06/21 07:14:18;;;;;;;4.45;1.85;;;;;;;27.45;41.24;94940.81;4975091;28;20268;-76
2021/06/21 07:16:43;;;;;;;9.63;1.90;;;;;;;27.26;41.60;94941.34;4975098;28;20195;-76
2021/06/21 07:19:08;;;;;;;5.25;1.48;;;;;;;28.27;40.91;94939.59;4975147;28;20168;-76
2021/06/21 07:21:34;;;;;;;6.53;1.52;;;;;;;28.43;40.27;94943.00;4968860;28;20709;-76
2021/06/21 07:23:59;;;;;;;4.95;1.55;;;;;;;27.82;41.34;94948.50;4963441;28;20184;-76
2021/06/21 07:26:24;;;;;;;5.97;1.70;;;;;;;28.46;40.54;94937.94;4939634;28;20205;-75
2021/06/21 07:28:51;;;;;;;5.55;1.63;;;;;;;28.41;41.15;94934.47;4959813;28;20196;-76
2021/06/21 07:31:17;;;;;;;7.47;1.55;;;;;;;28.26;40.44;94943.31;4957203;28;20726;-76
2021/06/21 07:33:42;;;;;;;4.25;1.13;;;;;;;28.05;41.08;94941.78;4965033;28;20179;-76
2021/06/21 07:36:07;;;;;;;4.95;1.98;;;;;;;25.50;44.48;94946.47;4954731;28;20211;-76
2021/06/21 07:38:33;;;;;;;6.22;1.55;;;;;;;25.07;46.87;94940.28;4980798;28;20537;-75
2021/06/21 07:40:58;;;;;;;4.47;1.33;;;;;;;25.30;47.15;94946.34;4939616;28;20188;-76
2021/06/21 07:43:24;;;;;;;5.88;1.63;;;;;;;25.62;45.86;94939.13;4953318;28;20222;-76
2021/06/21 07:45:50;;;;;;;3.53;1.40;;;;;;;25.60;45.75;94943.88;4974775;28;20191;-76
2021/06/21 07:48:15;;;;;;;4.75;1.48;;;;;;;26.10;44.31;94947.94;4971456;28;20188;-76
2021/06/21 07:50:41;;;;;;;2.80;1.00;;;;;;;27.09;40.51;94948.78;4971410;28;20223;-76
2021/06/21 07:53:06;;;;;;;3.03;1.40;;;;;;;27.41;39.97;94943.22;4957510;28;20222;-75
2021/06/21 07:55:33;;;;;;;3.08;1.38;;;;;;;27.47;40.12;94952.00;4974358;28;20195;-76
2021/06/21 07:57:59;;;;;;;6.35;1.23;;;;;;;27.64;39.23;94949.84;4969937;28;20194;-76
2021/06/21 08:00:26;;;;;;;3.95;1.40;;;;;;;27.68;37.59;94955.50;4975743;28;20165;-76
2021/06/21 08:02:51;;;;;;;3.72;1.40;;;;;;;27.03;38.68;94948.00;4962392;28;20239;-76
2021/06/21 08:05:17;;;;;;;4.30;1.25;;;;;;;25.93;40.97;94953.44;4969658;28;20207;-75
2021/06/21 08:07:42;;;;;;;5.13;1.48;;;;;;;24.47;43.63;94945.78;4955664;28;20179;-77
2021/06/21 08:10:09;;;;;;;2.97;1.30;;;;;;;25.48;42.19;94956.56;4963050;28;20615;-77
2021/06/21 08:12:34;;;;;;;3.05;1.50;;;;;;;25.49;42.25;94955.50;4967491;28;20180;-80
2021/06/21 08:14:59;;;;;;;3.92;1.52;;;;;;;25.52;43.78;94948.88;4966096;28;20207;-80
2021/06/21 08:17:25;;;;;;;3.33;1.30;;;;;;;25.95;42.63;94956.63;4975050;28;20187;-78
2021/06/21 08:19:50;;;;;;;3.05;1.40;;;;;;;26.08;42.37;94957.25;4979480;28;20187;-76
2021/06/21 08:22:21;;;;;;;4.90;1.40;;;;;;;26.45;40.26;94960.63;4962474;28;20179;-76
2021/06/21 08:24:46;;;;;;;4.53;1.77;;;;;;;25.99;39.30;94956.94;4977799;28;20314;-77
2021/06/21 08:27:12;;;;;;;4.88;1.33;;;;;;;25.53;40.27;94956.63;4974803;28;20227;-76
2021/06/21 08:29:37;;;;;;;2.70;1.30;;;;;;;25.39;42.17;94958.91;4942807;28;20216;-76
2021/06/21 08:32:03;;;;;;;3.08;1.55;;;;;;;24.42;41.76;94956.34;4980300;28;20185;-76
2021/06/21 08:34:28;;;;;;;1.95;1.40;;;;;;;24.22;42.94;94957.69;4966748;28;20199;-76
2021/06/21 08:36:53;;;;;;;2.90;1.42;;;;;;;23.46;45.95;94962.69;4986002;28;20286;-76
2021/06/21 08:39:19;;;;;;;3.05;1.33;;;;;;;23.65;46.54;94973.88;4967723;28;20558;-76
2021/06/21 08:41:44;;;;;;;3.13;1.67;;;;;;;23.24;45.68;94971.63;4950899;28;20200;-76
2021/06/21 08:44:10;;;;;;;2.90;1.30;;;;;;;22.66;50.12;94973.50;4989298;28;20226;-76
2021/06/21 08:46:36;;;;;;;6.25;1.85;;;;;;;22.28;51.32;94969.59;4993361;28;20210;-76
2021/06/21 08:49:03;;;;;;;4.25;1.63;;;;;;;22.65;51.60;94971.88;4969723;28;20283;-76
2021/06/21 08:51:28;;;;;;;3.58;1.60;;;;;;;22.82;51.65;94974.59;4978345;28;20255;-79
2021/06/21 08:53:54;;;;;;;5.10;1.60;;;;;;;22.75;51.33;94974.72;4977801;28;20264;-75
2021/06/21 08:56:19;;;;;;;5.15;1.50;;;;;;;23.03;50.05;94978.41;4994183;28;20203;-75
2021/06/21 08:58:44;;;;;;;4.90;1.90;;;;;;;23.24;50.91;94977.72;4986334;28;20192;-75
2021/06/21 09:01:10;;;;;;;6.38;1.50;;;;;;;22.88;51.19;94979.78;4975687;28;20181;-75
2021/06/21 09:03:35;;;;;;;6.68;1.92;;;;;;;23.27;50.72;94977.25;4942027;28;20189;-76
2021/06/21 09:06:01;;;;;;;5.03;1.67;;;;;;;23.01;52.00;94972.56;4965477;28;20214;-75
2021/06/21 09:08:27;;;;;;;4.40;1.75;;;;;;;22.99;50.17;94974.66;4971564;28;20176;-75
2021/06/21 09:10:52;;;;;;;4.68;1.70;;;;;;;23.47;51.77;94966.16;4961369;28;20219;-76
2021/06/21 09:13:18;;;;;;;4.00;1.67;;;;;;;23.97;51.42;94968.75;4993349;28;20251;-75
2021/06/21 09:15:45;;;;;;;5.13;1.90;;;;;;;24.31;49.72;94971.31;4976388;28;20290;-75
2021/06/21 09:18:30;;;;;;;4.05;1.67;;;;;;;24.82;48.26;94970.03;4983458;28;20649;-76
2021/06/21 09:21:26;;;;;;;3.13;1.25;;;;;;;24.74;46.15;94969.72;4958118;28;20184;-75
2021/06/21 09:23:53;;;;;;;4.38;1.40;;;;;;;24.82;45.96;94977.19;4957710;28;20177;-75
2021/06/21 09:26:26;;;;;;;4.07;1.70;;;;;;;25.25;43.80;94976.31;4977835;28;20195;-75
2021/06/21 09:28:52;;;;;;;2.60;1.50;;;;;;;25.18;44.77;94978.41;4967233;28;20191;-76
2021/06/21 09:31:18;;;;;;;3.47;1.40;;;;;;;24.68;44.05;94966.19;4957804;28;20176;-75
2021/06/21 09:33:44;;;;;;;3.58;1.20;;;;;;;25.73;43.56;94968.47;4941959;28;20190;-77
2021/06/21 09:36:24;;;;;;;5.28;1.50;;;;;;;26.06;42.65;94976.13;4974860;28;20286;-76
2021/06/21 09:39:19;;;;;;;4.40;1.42;;;;;;;25.25;41.04;94978.97;4965496;28;20288;-76
2021/06/21 09:42:07;;;;;;;4.15;1.30;;;;;;;25.49;40.85;94976.78;4977361;28;20175;-74
2021/06/21 09:44:39;;;;;;;1.60;1.25;;;;;;;24.74;42.80;94977.69;4994057;28;20251;-74
2021/06/21 09:47:11;;;;;;;1.88;1.20;;;;;;;25.00;42.18;94978.72;4994529;28;20235;-74
2021/06/21 09:49:36;;;;;;;4.13;1.40;;;;;;;24.67;42.47;94977.06;4978950;28;20239;-75
2021/06/21 09:52:02;;;;;;;4.28;1.92;;;;;;;24.29;42.86;94981.34;4975619;28;20269;-76
2021/06/21 09:54:32;;;;;;;3.25;1.25;;;;;;;23.95;42.06;94978.03;4993811;28;20180;-76
2021/06/21 09:56:58;;;;;;;3.67;1.50;;;;;;;23.87;43.65;94989.84;4976648;28;20242;-75
2021/06/21 09:59:29;;;;;;;4.93;1.60;;;;;;;23.50;45.98;94983.41;4988076;28;20172;-76
2021/06/21 10:02:08;;;;;;;4.38;1.42;;;;;;;23.49;45.43;94984.44;4965450;28;20271;-75
2021/06/21 10:04:35;;;;;;;2.50;1.50;;;;;;;23.58;44.07;94983.00;4957479;28;20172;-75
2021/06/21 10:07:01;;;;;;;1.52;0.90;;;;;;;24.07;42.38;94980.56;4957935;28;20177;-76
2021/06/21 10:09:27;;;;;;;1.63;1.08;;;;;;;24.11;42.57;94987.75;4961767;28;20694;-76
2021/06/21 10:11:53;;;;;;;2.95;1.00;;;;;;;24.01;41.79;94993.72;4976420;28;20175;-76
2021/06/21 10:14:22;;;;;;;3.40;1.00;;;;;;;24.27;40.72;94986.13;4976540;28;20179;-77
2021/06/21 10:16:49;;;;;;;3.65;1.15;;;;;;;24.43;40.76;94990.59;4976471;28;20188;-77
2021/06/21 10:19:14;;;;;;;1.58;1.17;;;;;;;24.94;39.79;94990.34;4993544;28;20251;-76
2021/06/21 10:21:43;;;;;;;1.38;1.08;;;;;;;24.90;40.59;94992.69;4960669;28;20264;-76
2021/06/21 10:24:09;;;;;;;2.85;1.00;;;;;;;24.91;41.26;94996.94;4956524;28;20234;-76
2021/06/21 10:26:39;;;;;;;1.17;0.90;;;;;;;25.41;41.64;94991.34;4956846;28;20197;-76
2021/06/21 10:29:04;;;;;;;1.70;0.85;;;;;;;25.61;36.82;94987.22;4956721;28;20189;-76
2021/06/21 10:31:30;;;;;;;2.92;1.00;;;;;;;25.18;39.50;94985.53;4952620;28;20187;-76
2021/06/21 10:33:57;;;;;;;1.55;0.93;;;;;;;25.51;38.61;94982.63;4966467;28;20180;-76
2021/06/21 10:36:39;;;;;;;2.83;0.95;;;;;;;25.46;38.74;94979.94;4956414;28;20213;-76
2021/06/21 10:39:24;;;;;;;1.83;1.10;;;;;;;25.64;37.74;94984.06;4956472;28;20263;-76
2021/06/21 10:42:05;;;;;;;1.50;0.90;;;;;;;25.67;37.33;94976.38;4964609;28;20824;-76
2021/06/21 10:44:50;;;;;;;2.47;1.05;;;;;;;25.65;38.91;94975.84;4987123;28;20183;-76
2021/06/21 10:47:39;;;;;;;2.55;0.98;;;;;;;25.84;38.62;94978.91;4992008;28;20180;-78
2021/06/21 10:50:07;;;;;;;1.77;0.98;;;;;;;26.14;38.37;94982.78;4972753;28;20200;-77
2021/06/21 10:52:39;;;;;;;2.22;0.80;;;;;;;25.83;36.56;94989.81;4978165;28;20184;-78
2021/06/21 10:55:22;;;;;;;3.13;1.15;;;;;;;25.59;37.38;94995.47;4983207;28;20200;-78
2021/06/21 10:57:52;;;;;;;2.17;1.00;;;;;;;25.97;38.30;94993.59;4957007;28;20184;-77
2021/06/21 11:00:19;;;;;;;2.03;1.10;;;;;;;26.07;38.19;94985.72;4974086;28;20179;-76
2021/06/21 11:02:44;;;;;;;4.05;1.10;;;;;;;25.62;39.39;94987.00;4963361;28;20698;-74
2021/06/21 11:05:11;;;;;;;2.25;1.05;;;;;;;25.60;38.37;94991.75;4981197;28;20275;-75
2021/06/21 11:07:36;;;;;;;1.45;0.98;;;;;;;25.88;39.35;94992.47;4956002;28;20185;-74
2021/06/21 11:10:06;;;;;;;3.65;1.70;;;;;;;26.17;38.87;94999.06;4955885;28;20319;-76
2021/06/21 11:12:31;;;;;;;1.48;1.20;;;;;;;25.84;37.99;94997.53;4955274;28;20176;-75
2021/06/21 11:15:03;;;;;;;3.75;1.42;;;;;;;26.13;39.49;95002.47;4966042;28;20214;-75
2021/06/21 11:17:30;;;;;;;2.03;1.23;;;;;;;25.63;40.19;94999.22;4973342;28;20199;-75
2021/06/21 11:19:56;;;;;;;2.67;1.13;;;;;;;25.23;39.65;95001.53;4955967;28;20176;-75
2021/06/21 11:22:42;;;;;;;1.98;1.25;;;;;;;25.57;39.69;95000.22;4939814;28;20260;-75
2021/06/21 11:25:23;;;;;;;4.15;1.38;;;;;;;25.93;40.62;95009.28;4953725;28;20208;-74
2021/06/21 11:27:49;;;;;;;4.18;1.23;;;;;;;26.41;39.46;95009.31;4958893;28;20549;-74
2021/06/21 11:30:34;;;;;;;4.20;1.30;;;;;;;26.08;40.17;95010.44;4955837;28;20288;-74
2021/06/21 11:33:10;;;;;;;2.40;1.30;;;;;;;26.23;40.10;95000.66;4955813;28;20970;-75
2021/06/21 11:36:05;;;;;;;1.38;1.10;;;;;;;26.05;39.42;95000.31;4962222;28;20265;-74